createdAt,value
2022-08-12T00:00:54.681Z,3.6
2022-08-12T00:02:05.507Z,3.6
2022-08-12T00:03:11.455Z,3.6
2022-08-12T00:04:19.942Z,3.9
2022-08-12T00:05:28.283Z,3.9
2022-08-12T00:06:36.647Z,3.9
2022-08-12T00:07:45.201Z,2.9
2022-08-12T00:08:53.538Z,2.9
2022-08-12T00:10:01.893Z,2.9
2022-08-12T00:11:12.354Z,3.3
2022-08-12T00:12:18.807Z,3.3
2022-08-12T00:13:27.171Z,3.3
2022-08-12T00:14:35.712Z,3.3
2022-08-12T00:15:44.058Z,3.3
2022-08-12T00:16:52.405Z,3.3
2022-08-12T00:18:00.953Z,3.1
2022-08-12T00:19:09.302Z,3.1
2022-08-12T00:20:17.662Z,3.1
2022-08-12T00:21:26.654Z,5.4
2022-08-12T00:22:34.647Z,5.4
2022-08-12T00:23:42.931Z,5.4
2022-08-12T00:24:51.476Z,4.9
2022-08-12T00:26:21.912Z,4.9
2022-08-12T00:27:08.175Z,4.9
2022-08-12T00:28:16.734Z,3.8
2022-08-12T00:29:25.083Z,3.8
2022-08-12T00:30:33.451Z,3.8
2022-08-12T00:31:41.987Z,3.8
2022-08-12T00:32:55.015Z,3.8
2022-08-12T00:33:58.769Z,3.8
2022-08-12T00:35:08.829Z,4.1
2022-08-12T00:36:32.374Z,4.1
2022-08-12T00:37:23.934Z,4.1
2022-08-12T00:38:32.485Z,4.2
2022-08-12T00:39:40.873Z,4.2
2022-08-12T00:40:49.212Z,4.2
2022-08-12T00:41:57.747Z,3.8
2022-08-12T00:43:06.088Z,3.8
2022-08-12T00:44:14.426Z,3.8
2022-08-12T00:45:22.949Z,3.3
2022-08-12T00:46:31.295Z,3.3
2022-08-12T00:47:39.638Z,3.3
2022-08-12T00:48:48.166Z,4.5
2022-08-12T00:49:56.510Z,4.5
2022-08-12T00:51:04.855Z,4.5
2022-08-12T00:52:13.387Z,3.2
2022-08-12T00:53:21.714Z,3.2
2022-08-12T00:54:30.049Z,3.2
2022-08-12T00:55:38.612Z,3.2
2022-08-12T00:56:46.938Z,3.2
2022-08-12T00:57:55.265Z,3.2
2022-08-12T00:59:03.808Z,4.1
2022-08-12T01:00:12.140Z,4.1
2022-08-12T01:01:20.564Z,4.1
2022-08-12T01:02:29.017Z,4.2
2022-08-12T01:03:37.355Z,4.2
2022-08-12T01:04:45.683Z,4.2
2022-08-12T01:05:54.215Z,3.2
2022-08-12T01:07:02.537Z,3.2
2022-08-12T01:08:10.864Z,3.2
2022-08-12T01:09:19.410Z,3.3
2022-08-12T01:10:32.834Z,3.3
2022-08-12T01:11:36.077Z,3.3
2022-08-12T01:12:44.632Z,4.9
2022-08-12T01:13:52.975Z,4.9
2022-08-12T01:15:01.314Z,4.9
2022-08-12T01:16:09.866Z,5.6
2022-08-12T01:17:18.191Z,5.6
2022-08-12T01:18:26.518Z,5.6
2022-08-12T01:19:35.050Z,4.9
2022-08-12T01:20:43.380Z,4.9
2022-08-12T01:21:51.712Z,4.9
2022-08-12T01:23:00.243Z,5.3
2022-08-12T01:24:23.103Z,5.3
2022-08-12T01:25:16.912Z,5.3
2022-08-12T01:26:25.457Z,3.9
2022-08-12T01:27:33.802Z,3.9
2022-08-12T01:28:42.165Z,3.9
2022-08-12T01:29:50.703Z,2.5
2022-08-12T01:30:59.029Z,2.5
2022-08-12T01:32:07.355Z,2.5
2022-08-12T01:33:15.891Z,4.8
2022-08-12T01:34:28.431Z,4.8
2022-08-12T01:35:32.553Z,4.8
2022-08-12T01:36:41.103Z,3.2
2022-08-12T01:37:49.446Z,3.2
2022-08-12T01:38:57.778Z,3.2
2022-08-12T01:40:31.805Z,2.3
2022-08-12T01:41:14.686Z,2.3
2022-08-12T01:42:23.014Z,2.3
2022-08-12T01:43:31.546Z,3.3
2022-08-12T01:44:39.888Z,3.3
2022-08-12T01:45:48.219Z,3.3
2022-08-12T01:46:56.754Z,4.7
2022-08-12T01:48:05.389Z,4.7
2022-08-12T01:49:13.395Z,4.7
2022-08-12T01:50:21.932Z,4
2022-08-12T01:52:16.196Z,4
2022-08-12T01:52:38.781Z,4
2022-08-12T01:53:48.687Z,2.8
2022-08-12T01:54:55.506Z,2.8
2022-08-12T01:56:03.826Z,2.8
2022-08-12T01:57:12.352Z,3
2022-08-12T01:58:20.698Z,3
2022-08-12T01:59:29.017Z,3
2022-08-12T02:00:43.449Z,3.2
2022-08-12T02:01:45.984Z,3.2
2022-08-12T02:02:54.249Z,3.2
2022-08-12T02:04:02.784Z,3.1
2022-08-12T02:05:11.121Z,3.1
2022-08-12T02:06:19.442Z,3.1
2022-08-12T02:07:27.996Z,5
2022-08-12T02:08:36.346Z,5
2022-08-12T02:09:44.691Z,5
2022-08-12T02:10:53.234Z,2.6
2022-08-12T02:12:03.046Z,2.6
2022-08-12T02:13:09.886Z,2.6
2022-08-12T02:14:18.411Z,5.2
2022-08-12T02:15:26.779Z,5.2
2022-08-12T02:16:35.110Z,5.2
2022-08-12T02:17:54.958Z,3.8
2022-08-12T02:18:52.547Z,3.8
2022-08-12T02:20:00.900Z,3.8
2022-08-12T02:21:09.429Z,3.4
2022-08-12T02:22:17.775Z,3.4
2022-08-12T02:23:26.111Z,3.4
2022-08-12T02:24:34.667Z,4
2022-08-12T02:25:43.021Z,4
2022-08-12T02:26:51.355Z,4
2022-08-12T02:27:59.890Z,3.5
2022-08-12T02:29:08.222Z,3.5
2022-08-12T02:30:16.562Z,3.5
2022-08-12T02:31:25.106Z,4.2
2022-08-12T02:32:33.414Z,4.2
2022-08-12T02:33:41.749Z,4.2
2022-08-12T02:34:50.291Z,3.5
2022-08-12T02:35:58.627Z,3.5
2022-08-12T02:37:06.936Z,3.5
2022-08-12T02:38:15.467Z,3.8
2022-08-12T02:39:23.892Z,3.8
2022-08-12T02:40:32.177Z,3.8
2022-08-12T02:41:40.742Z,3.6
2022-08-12T02:42:49.070Z,3.6
2022-08-12T02:43:57.405Z,3.6
2022-08-12T02:45:05.965Z,3.1
2022-08-12T02:46:15.180Z,3.1
2022-08-12T02:48:00.487Z,3.1
2022-08-12T02:48:31.156Z,3.6
2022-08-12T02:49:39.484Z,3.6
2022-08-12T02:50:47.833Z,3.6
2022-08-12T02:51:56.363Z,4
2022-08-12T02:53:04.689Z,4
2022-08-12T02:54:13.037Z,4
2022-08-12T02:55:28.479Z,3.6
2022-08-12T02:56:29.902Z,3.6
2022-08-12T02:57:38.221Z,3.6
2022-08-12T02:58:46.755Z,3.9
2022-08-12T02:59:55.110Z,3.9
2022-08-12T03:01:03.525Z,3.9
2022-08-12T03:02:11.989Z,6.4
2022-08-12T03:03:20.321Z,6.4
2022-08-12T03:04:28.648Z,6.4
2022-08-12T03:05:38.569Z,2.4
2022-08-12T03:06:45.499Z,2.4
2022-08-12T03:07:56.706Z,2.4
2022-08-12T03:09:02.395Z,4.3
2022-08-12T03:10:12.197Z,4.3
2022-08-12T03:11:19.062Z,4.3
2022-08-12T03:12:29.815Z,3.6
2022-08-12T03:13:35.952Z,3.6
2022-08-12T03:14:44.283Z,3.6
2022-08-12T03:15:52.837Z,3.9
2022-08-12T03:17:01.155Z,3.9
2022-08-12T03:18:23.814Z,3.9
2022-08-12T03:19:18.011Z,3.4
2022-08-12T03:20:28.479Z,3.4
2022-08-12T03:21:52.489Z,3.4
2022-08-12T03:22:43.221Z,4
2022-08-12T03:23:51.549Z,4
2022-08-12T03:24:59.905Z,4
2022-08-12T03:26:08.471Z,4.3
2022-08-12T03:27:16.808Z,4.3
2022-08-12T03:28:25.150Z,4.3
2022-08-12T03:29:42.934Z,16.4
2022-08-12T03:30:42.056Z,16.4
2022-08-12T03:31:50.378Z,16.4
2022-08-12T03:32:58.913Z,5.6
2022-08-12T03:34:07.231Z,5.6
2022-08-12T03:35:19.164Z,5.6
2022-08-12T03:36:24.144Z,5.2
2022-08-12T03:37:32.503Z,5.2
2022-08-12T03:38:40.845Z,5.2
2022-08-12T03:39:49.450Z,3.9
2022-08-12T03:40:57.766Z,3.9
2022-08-12T03:42:06.119Z,3.9
2022-08-12T03:43:14.698Z,9.7
2022-08-12T03:44:23.063Z,9.7
2022-08-12T03:45:31.414Z,9.7
2022-08-12T03:46:39.954Z,9.7
2022-08-12T03:47:48.304Z,9.7
2022-08-12T03:48:56.645Z,9.7
2022-08-12T03:50:05.208Z,4.9
2022-08-12T03:51:13.567Z,4.9
2022-08-12T03:52:21.902Z,4.9
2022-08-12T03:53:30.456Z,5.3
2022-08-12T03:54:42.477Z,5.3
2022-08-12T03:55:47.165Z,5.3
2022-08-12T03:56:55.724Z,7.2
2022-08-12T03:58:04.076Z,7.2
2022-08-12T03:59:12.418Z,7.2
2022-08-12T04:00:23.839Z,5.8
2022-08-12T04:01:29.381Z,5.8
2022-08-12T04:02:37.662Z,5.8
2022-08-12T04:03:46.215Z,4.4
2022-08-12T04:04:54.581Z,4.4
2022-08-12T04:06:02.927Z,4.4
2022-08-12T04:07:11.508Z,5
2022-08-12T04:08:19.832Z,5
2022-08-12T04:09:28.186Z,5
2022-08-12T04:10:36.737Z,4.2
2022-08-12T04:11:46.759Z,4.2
2022-08-12T04:12:53.398Z,4.2
2022-08-12T04:14:01.941Z,3.5
2022-08-12T04:15:10.273Z,3.5
2022-08-12T04:16:18.621Z,3.5
2022-08-12T04:17:27.169Z,5.3
2022-08-12T04:18:35.513Z,5.3
2022-08-12T04:19:43.855Z,5.3
2022-08-12T04:20:52.385Z,8.4
2022-08-12T04:22:02.565Z,8.4
2022-08-12T04:23:09.036Z,8.4
2022-08-12T04:24:17.587Z,6
2022-08-12T04:25:25.920Z,6
2022-08-12T04:26:34.241Z,6
2022-08-12T04:27:42.791Z,4.8
2022-08-12T04:28:51.114Z,4.8
2022-08-12T04:30:16.211Z,4.8
2022-08-12T04:31:08.006Z,7.5
2022-08-12T04:32:16.343Z,7.5
2022-08-12T04:33:24.664Z,7.5
2022-08-12T04:34:33.219Z,6
2022-08-12T04:35:41.548Z,6
2022-08-12T04:36:49.897Z,6
2022-08-12T04:38:00.496Z,6.1
2022-08-12T04:39:06.732Z,6.1
2022-08-12T04:40:15.078Z,6.1
2022-08-12T04:41:23.622Z,4.2
2022-08-12T04:42:31.971Z,4.2
2022-08-12T04:43:54.388Z,4.2
2022-08-12T04:44:48.916Z,4.5
2022-08-12T04:45:57.196Z,4.5
2022-08-12T04:47:05.525Z,4.5
2022-08-12T04:48:14.069Z,4
2022-08-12T04:49:22.418Z,4
2022-08-12T04:50:34.200Z,4
2022-08-12T04:51:39.267Z,4.9
2022-08-12T04:52:47.588Z,4.9
2022-08-12T04:53:55.914Z,4.9
2022-08-12T04:55:04.474Z,5.1
2022-08-12T04:56:12.806Z,5.1
2022-08-12T04:57:21.145Z,5.1
2022-08-12T04:58:30.177Z,3.8
2022-08-12T04:59:46.443Z,3.8
2022-08-12T05:00:46.337Z,3.8
2022-08-12T05:01:54.943Z,4.6
2022-08-12T05:03:03.315Z,4.6
2022-08-12T05:04:11.560Z,4.6
2022-08-12T05:05:20.111Z,4.2
2022-08-12T05:06:28.441Z,4.2
2022-08-12T05:07:45.663Z,4.2
2022-08-12T05:08:45.295Z,4
2022-08-12T05:10:01.216Z,4
2022-08-12T05:11:02.020Z,4
2022-08-12T05:12:10.584Z,5.1
2022-08-12T05:13:18.940Z,5.1
2022-08-12T05:14:27.275Z,5.1
2022-08-12T05:15:36.137Z,5.6
2022-08-12T05:16:44.208Z,5.6
2022-08-12T05:17:52.529Z,5.6
2022-08-12T05:19:01.071Z,4.7
2022-08-12T05:20:09.467Z,4.7
2022-08-12T05:21:17.815Z,4.7
2022-08-12T05:22:26.355Z,5.3
2022-08-12T05:23:34.653Z,5.3
2022-08-12T05:24:42.998Z,5.3
2022-08-12T05:25:51.582Z,6.6
2022-08-12T05:26:59.908Z,6.6
2022-08-12T05:28:08.258Z,6.6
2022-08-12T05:30:05.802Z,7.8
2022-08-12T05:30:25.145Z,7.8
2022-08-12T05:31:40.712Z,7.8
2022-08-12T05:32:42.254Z,4.5
2022-08-12T05:33:50.353Z,4.5
2022-08-12T05:34:58.723Z,4.5
2022-08-12T05:36:07.274Z,5
2022-08-12T05:37:15.587Z,5
2022-08-12T05:38:23.924Z,5
2022-08-12T05:39:32.541Z,3.4
2022-08-12T05:40:40.877Z,3.4
2022-08-12T05:41:49.204Z,3.4
2022-08-12T05:42:57.733Z,2.7
2022-08-12T05:44:06.067Z,2.7
2022-08-12T05:45:14.391Z,2.7
2022-08-12T05:46:22.924Z,3.8
2022-08-12T05:47:42.754Z,3.8
2022-08-12T05:48:39.619Z,3.8
2022-08-12T05:49:48.153Z,4.3
2022-08-12T05:50:56.480Z,4.3
2022-08-12T05:52:04.802Z,4.3
2022-08-12T05:53:13.357Z,3.7
2022-08-12T05:54:27.452Z,3.7
2022-08-12T05:55:31.414Z,3.7
2022-08-12T05:56:38.581Z,2.5
2022-08-12T05:57:46.930Z,2.5
2022-08-12T05:58:55.268Z,2.5
2022-08-12T06:00:03.821Z,5.2
2022-08-12T06:02:11.210Z,5.2
2022-08-12T06:02:20.486Z,5.2
2022-08-12T06:03:29.056Z,2.3
2022-08-12T06:04:37.367Z,2.3
2022-08-12T06:05:54.699Z,2.3
2022-08-12T06:06:54.261Z,3.5
2022-08-12T06:08:03.154Z,3.5
2022-08-12T06:09:10.957Z,3.5
2022-08-12T06:10:28.495Z,1.9
2022-08-12T06:11:27.905Z,1.9
2022-08-12T06:12:36.254Z,1.9
2022-08-12T06:13:53.019Z,3.5
2022-08-12T06:14:53.141Z,3.5
2022-08-12T06:16:01.498Z,3.5
2022-08-12T06:17:10.034Z,2.5
2022-08-12T06:18:18.369Z,2.5
2022-08-12T06:20:21.865Z,2.5
2022-08-12T06:20:35.243Z,3.4
2022-08-12T06:21:43.573Z,3.4
2022-08-12T06:22:52.609Z,3.4
2022-08-12T06:24:00.458Z,2.4
2022-08-12T06:25:08.823Z,2.4
2022-08-12T06:26:17.162Z,2.4
2022-08-12T06:27:25.698Z,3.4
2022-08-12T06:28:34.074Z,3.4
2022-08-12T06:30:07.747Z,3.4
2022-08-12T06:31:08.466Z,2.2
2022-08-12T06:31:59.279Z,2.2
2022-08-12T06:33:24.475Z,2.2
2022-08-12T06:35:24.718Z,4.6
2022-08-12T06:35:47.997Z,4.6
2022-08-12T06:36:33.646Z,4.6
2022-08-12T06:37:41.340Z,2.7
2022-08-12T06:38:49.663Z,2.7
2022-08-12T06:40:01.592Z,2.7
2022-08-12T06:41:06.559Z,3.1
2022-08-12T06:42:32.700Z,3.1
2022-08-12T06:43:23.247Z,3.1
2022-08-12T06:44:31.789Z,2.2
2022-08-12T06:45:45.162Z,2.2
2022-08-12T06:46:48.456Z,2.2
2022-08-12T06:47:57.000Z,3.5
2022-08-12T06:49:05.341Z,3.5
2022-08-12T06:50:13.664Z,3.5
2022-08-12T06:51:22.205Z,3.1
2022-08-12T06:52:30.542Z,3.1
2022-08-12T06:53:38.873Z,3.1
2022-08-12T06:54:47.418Z,4.6
2022-08-12T06:55:56.861Z,4.6
2022-08-12T06:57:57.647Z,4.6
2022-08-12T06:58:12.597Z,3.4
2022-08-12T06:59:20.957Z,3.4
2022-08-12T07:00:32.396Z,3.4
2022-08-12T07:01:37.858Z,4.8
2022-08-12T07:02:46.193Z,4.8
2022-08-12T07:03:54.546Z,4.8
2022-08-12T07:05:03.094Z,3.7
2022-08-12T07:06:11.426Z,3.7
2022-08-12T07:07:19.774Z,3.7
2022-08-12T07:08:28.340Z,6.2
2022-08-12T07:09:56.373Z,6.2
2022-08-12T07:10:45.031Z,6.2
2022-08-12T07:11:53.592Z,3.7
2022-08-12T07:13:01.939Z,3.7
2022-08-12T07:14:12.071Z,3.7
2022-08-12T07:15:19.420Z,3.1
2022-08-12T07:16:27.739Z,3.1
2022-08-12T07:17:36.794Z,3.1
2022-08-12T07:18:44.643Z,3.7
2022-08-12T07:19:52.977Z,3.7
2022-08-12T07:21:01.320Z,3.7
2022-08-12T07:22:09.893Z,3.4
2022-08-12T07:23:18.242Z,3.4
2022-08-12T07:24:26.593Z,3.4
2022-08-12T07:25:37.144Z,3
2022-08-12T07:26:43.764Z,3
2022-08-12T07:27:51.809Z,3
2022-08-12T07:29:00.358Z,4.4
2022-08-12T07:30:08.689Z,4.4
2022-08-12T07:31:17.224Z,4.4
2022-08-12T07:32:25.845Z,3.9
2022-08-12T07:33:33.933Z,3.9
2022-08-12T07:34:42.279Z,3.9
2022-08-12T07:35:50.828Z,2.5
2022-08-12T07:36:59.166Z,2.5
2022-08-12T07:38:07.512Z,2.5
2022-08-12T07:39:16.111Z,3.9
2022-08-12T07:40:24.404Z,3.9
2022-08-12T07:41:32.758Z,3.9
2022-08-12T07:42:41.361Z,4.1
2022-08-12T07:43:49.648Z,4.1
2022-08-12T07:44:58.023Z,4.1
2022-08-12T07:46:06.566Z,3
2022-08-12T07:47:14.913Z,3
2022-08-12T07:48:23.270Z,3
2022-08-12T07:49:31.820Z,3.2
2022-08-12T07:50:40.163Z,3.2
2022-08-12T07:51:48.504Z,3.2
2022-08-12T07:52:57.065Z,4
2022-08-12T07:54:05.490Z,4
2022-08-12T07:55:13.753Z,4
2022-08-12T07:56:22.314Z,5.1
2022-08-12T07:57:30.663Z,5.1
2022-08-12T07:58:39.061Z,5.1
2022-08-12T07:59:47.611Z,3.4
2022-08-12T08:00:55.962Z,3.4
2022-08-12T08:02:04.370Z,3.4
2022-08-12T08:03:12.885Z,3.6
2022-08-12T08:04:21.261Z,3.6
2022-08-12T08:05:29.598Z,3.6
2022-08-12T08:06:38.152Z,2.5
2022-08-12T08:07:46.534Z,2.5
2022-08-12T08:08:54.877Z,2.5
2022-08-12T08:10:03.437Z,3.8
2022-08-12T08:11:11.782Z,3.8
2022-08-12T08:12:20.121Z,3.8
2022-08-12T08:13:28.692Z,3.7
2022-08-12T08:14:37.050Z,3.7
2022-08-12T08:16:02.241Z,3.7
2022-08-12T08:16:53.937Z,3
2022-08-12T08:18:02.288Z,3
2022-08-12T08:19:10.633Z,3
2022-08-12T08:20:19.165Z,3.2
2022-08-12T08:21:27.538Z,3.2
2022-08-12T08:22:41.244Z,3.2
2022-08-12T08:23:46.185Z,3.2
2022-08-12T08:24:52.780Z,3.2
2022-08-12T08:26:01.110Z,3.2
2022-08-12T08:27:09.701Z,3.7
2022-08-12T08:28:18.036Z,3.7
2022-08-12T08:29:26.384Z,3.7
2022-08-12T08:30:34.946Z,2.9
2022-08-12T08:31:45.386Z,2.9
2022-08-12T08:32:51.641Z,2.9
2022-08-12T08:34:14.455Z,3.9
2022-08-12T08:35:08.560Z,3.9
2022-08-12T08:36:23.716Z,3.9
2022-08-12T08:37:27.758Z,3.9
2022-08-12T08:38:35.261Z,3.9
2022-08-12T08:39:42.150Z,3.9
2022-08-12T08:40:50.638Z,1.8
2022-08-12T08:42:13.064Z,1.8
2022-08-12T08:43:07.282Z,1.8
2022-08-12T08:44:15.835Z,2.7
2022-08-12T08:45:24.157Z,2.7
2022-08-12T08:46:32.489Z,2.7
2022-08-12T08:47:41.051Z,1.9
2022-08-12T08:48:49.370Z,1.9
2022-08-12T08:49:57.719Z,1.9
2022-08-12T08:51:06.263Z,6.3
2022-08-12T08:52:38.994Z,6.3
2022-08-12T08:53:22.918Z,6.3
2022-08-12T08:54:31.447Z,2.7
2022-08-12T08:56:03.475Z,2.7
2022-08-12T08:56:48.150Z,2.7
2022-08-12T08:57:56.703Z,2.6
2022-08-12T08:59:05.050Z,2.6
2022-08-12T09:00:15.218Z,2.6
2022-08-12T09:01:22.004Z,3.8
2022-08-12T09:02:30.262Z,3.8
2022-08-12T09:05:04.617Z,3.8
2022-08-12T09:05:10.278Z,2.1
2022-08-12T09:06:01.940Z,2.1
2022-08-12T09:07:16.690Z,2.1
2022-08-12T09:08:19.327Z,2.3
2022-08-12T09:09:20.685Z,2.3
2022-08-12T09:10:31.044Z,2.3
2022-08-12T09:11:52.350Z,3.9
2022-08-12T09:12:45.877Z,3.9
2022-08-12T09:14:11.620Z,3.9
2022-08-12T09:15:02.743Z,2.7
2022-08-12T09:16:11.067Z,2.7
2022-08-12T09:17:20.901Z,2.7
2022-08-12T09:18:31.022Z,2.8
2022-08-12T09:19:36.269Z,2.8
2022-08-12T09:20:44.598Z,2.8
2022-08-12T09:21:54.455Z,3.4
2022-08-12T09:23:01.465Z,3.4
2022-08-12T09:24:10.385Z,3.4
2022-08-12T09:25:25.165Z,1.1
2022-08-12T09:26:28.199Z,1.1
2022-08-12T09:27:58.200Z,1.1
2022-08-12T09:28:43.543Z,1.8
2022-08-12T09:30:09.281Z,1.8
2022-08-12T09:31:00.289Z,1.8
2022-08-12T09:32:10.157Z,2.5
2022-08-12T09:33:19.510Z,2.5
2022-08-12T09:34:32.136Z,2.5
2022-08-12T09:35:42.648Z,2.2
2022-08-12T09:36:58.540Z,2.2
2022-08-12T09:37:55.330Z,2.2
2022-08-12T09:39:00.138Z,2.9
2022-08-12T09:40:58.216Z,2.9
2022-08-12T09:42:10.110Z,2.9
2022-08-12T09:42:35.526Z,1.2
2022-08-12T09:43:32.863Z,1.2
2022-08-12T09:44:41.290Z,1.2
2022-08-12T09:46:05.751Z,2.1
2022-08-12T09:46:58.048Z,2.1
2022-08-12T09:48:06.365Z,2.1
2022-08-12T09:49:16.593Z,3.3
2022-08-12T09:50:23.301Z,3.3
2022-08-12T09:51:35.630Z,3.3
2022-08-12T09:52:40.186Z,2.1
2022-08-12T09:54:05.837Z,2.1
2022-08-12T09:54:59.985Z,2.1
2022-08-12T09:56:57.454Z,2.9
2022-08-12T09:58:08.473Z,2.9
2022-08-12T09:58:47.267Z,2.9
2022-08-12T10:00:14.419Z,3.7
2022-08-12T10:00:48.525Z,3.7
2022-08-12T10:02:39.804Z,3.7
2022-08-12T10:02:56.503Z,3
2022-08-12T10:04:05.041Z,3
2022-08-12T10:05:13.645Z,3
2022-08-12T10:06:27.458Z,4.4
2022-08-12T10:07:40.183Z,4.4
2022-08-12T10:08:37.871Z,4.4
2022-08-12T10:09:57.018Z,1.6
2022-08-12T10:10:54.781Z,1.6
2022-08-12T10:12:11.030Z,1.6
2022-08-12T10:13:12.293Z,3.4
2022-08-12T10:14:19.997Z,3.4
2022-08-12T10:16:00.548Z,3.4
2022-08-12T10:16:39.534Z,4.3
2022-08-12T10:17:57.220Z,4.3
2022-08-12T10:18:55.230Z,4.3
2022-08-12T10:20:03.792Z,1.6
2022-08-12T10:21:12.144Z,1.6
2022-08-12T10:22:36.416Z,1.6
2022-08-12T10:23:39.691Z,3.3
2022-08-12T10:24:37.409Z,3.3
2022-08-12T10:26:18.808Z,3.3
2022-08-12T10:26:54.312Z,1.6
2022-08-12T10:28:04.431Z,1.6
2022-08-12T10:30:01.232Z,1.6
2022-08-12T10:30:39.212Z,5
2022-08-12T10:31:27.924Z,5
2022-08-12T10:32:43.556Z,5
2022-08-12T10:33:55.786Z,4.6
2022-08-12T10:34:56.837Z,4.6
2022-08-12T10:36:01.534Z,4.6
2022-08-12T10:37:10.806Z,3.2
2022-08-12T10:38:32.967Z,3.2
2022-08-12T10:39:44.328Z,3.2
2022-08-12T10:40:37.559Z,1.9
2022-08-12T10:41:56.637Z,1.9
2022-08-12T10:42:52.040Z,1.9
2022-08-12T10:44:00.574Z,2.9
2022-08-12T10:45:08.925Z,2.9
2022-08-12T10:46:17.297Z,2.9
2022-08-12T10:48:01.857Z,3.4
2022-08-12T10:48:34.712Z,3.4
2022-08-12T10:50:01.774Z,3.4
2022-08-12T10:51:01.413Z,3.4
2022-08-12T10:52:05.080Z,3.4
2022-08-12T10:53:08.944Z,3.4
2022-08-12T10:54:16.328Z,3.5
2022-08-12T10:55:26.043Z,3.5
2022-08-12T10:56:34.390Z,3.5
2022-08-12T10:57:50.306Z,1.2
2022-08-12T10:58:49.908Z,1.2
2022-08-12T11:00:30.066Z,1.2
2022-08-12T11:01:25.663Z,0.6
2022-08-12T11:04:21.312Z,0.6
2022-08-12T11:04:21.661Z,0.6
2022-08-12T11:04:44.283Z,5.2
2022-08-12T11:07:04.038Z,5.2
2022-08-12T11:07:04.633Z,5.2
2022-08-12T11:08:35.435Z,1.5
2022-08-12T11:09:07.164Z,1.5
2022-08-12T11:10:14.080Z,1.5
2022-08-12T11:12:07.997Z,2.8
2022-08-12T11:12:36.282Z,2.8
2022-08-12T11:13:39.895Z,2.8
2022-08-12T11:14:48.964Z,1.9
2022-08-12T11:16:04.451Z,1.9
2022-08-12T11:17:33.930Z,1.9
2022-08-12T11:18:18.185Z,3.1
2022-08-12T11:19:22.405Z,3.1
2022-08-12T11:20:30.663Z,3.1
2022-08-12T11:21:56.209Z,2.7
2022-08-12T11:22:57.983Z,2.7
2022-08-12T11:23:55.150Z,2.7
2022-08-12T11:25:10.334Z,2.6
2022-08-12T11:26:12.037Z,2.6
2022-08-12T11:27:20.390Z,2.6
2022-08-12T11:28:33.642Z,4.8
2022-08-12T11:30:02.648Z,4.8
2022-08-12T11:30:45.622Z,4.8
2022-08-12T11:31:56.419Z,1.7
2022-08-12T11:33:02.510Z,1.7
2022-08-12T11:34:13.621Z,1.7
2022-08-12T11:35:19.412Z,2.5
2022-08-12T11:36:27.731Z,2.5
2022-08-12T11:37:37.872Z,2.5
2022-08-12T11:38:50.334Z,3.2
2022-08-12T11:41:01.315Z,3.2
2022-08-12T11:42:09.877Z,2.5
2022-08-12T11:43:19.495Z,2.5
2022-08-12T11:44:36.421Z,2.5
2022-08-12T11:45:38.877Z,2.3
2022-08-12T11:46:43.479Z,2.3
2022-08-12T11:47:51.837Z,2.3
2022-08-12T11:49:00.451Z,1.6
2022-08-12T11:50:11.639Z,1.6
2022-08-12T11:51:17.121Z,1.6
2022-08-12T11:52:35.357Z,1.6
2022-08-12T11:53:53.606Z,1.6
2022-08-12T11:54:42.388Z,1.6
2022-08-12T11:55:50.935Z,2.1
2022-08-12T11:57:00.033Z,2.1
2022-08-12T11:58:53.150Z,2.1
2022-08-12T12:02:00.380Z,0.9
2022-08-12T12:02:00.616Z,0.9
2022-08-12T12:02:41.611Z,2.5
2022-08-12T12:03:49.808Z,2.5
2022-08-12T12:04:58.162Z,2.5
2022-08-12T12:06:06.712Z,2.7
2022-08-12T12:07:15.176Z,2.7
2022-08-12T12:08:40.341Z,2.7
2022-08-12T12:09:32.633Z,1.4
2022-08-12T12:10:40.465Z,1.4
2022-08-12T12:11:49.670Z,1.4
2022-08-12T12:12:57.366Z,0.9
2022-08-12T12:14:11.118Z,0.9
2022-08-12T12:15:14.759Z,0.9
2022-08-12T12:16:23.317Z,0.9
2022-08-12T12:17:34.325Z,0.9
2022-08-12T12:18:40.003Z,0.9
2022-08-12T12:19:48.552Z,1.6
2022-08-12T12:20:56.906Z,1.6
2022-08-12T12:22:05.256Z,1.6
2022-08-12T12:23:28.900Z,1.5
2022-08-12T12:24:22.506Z,1.5
2022-08-12T12:25:59.205Z,1.5
2022-08-12T12:26:39.209Z,0.9
2022-08-12T12:28:03.929Z,0.9
2022-08-12T12:28:55.924Z,0.9
2022-08-12T12:30:14.334Z,4.4
2022-08-12T12:31:14.726Z,4.4
2022-08-12T12:32:29.107Z,4.4
2022-08-12T12:33:46.140Z,2
2022-08-12T12:34:38.072Z,2
2022-08-12T12:36:06.974Z,2
2022-08-12T12:36:55.081Z,1.2
2022-08-12T12:38:12.111Z,1.2
2022-08-12T12:39:11.763Z,1.2
2022-08-12T12:40:20.221Z,1.6
2022-08-12T12:42:42.437Z,1.6
2022-08-12T12:42:44.492Z,1.6
2022-08-12T12:43:56.658Z,1.8
2022-08-12T12:44:53.930Z,1.8
2022-08-12T12:46:02.198Z,1.8
2022-08-12T12:47:28.617Z,1.2
2022-08-12T12:48:19.110Z,1.2
2022-08-12T12:49:27.629Z,1.2
2022-08-12T12:50:43.690Z,3
2022-08-12T12:51:48.506Z,3
2022-08-12T12:52:53.126Z,3
2022-08-12T12:54:06.012Z,2.6
2022-08-12T12:55:10.037Z,2.6
2022-08-12T12:56:18.392Z,2.6
2022-08-12T12:57:35.989Z,2.5
2022-08-12T12:58:35.316Z,2.5
2022-08-12T12:59:55.753Z,2.5
2022-08-12T13:00:52.275Z,0.9
2022-08-12T13:02:00.599Z,0.9
2022-08-12T13:03:11.299Z,0.9
2022-08-12T13:04:17.481Z,1.9
2022-08-12T13:05:27.646Z,1.9
2022-08-12T13:06:34.276Z,1.9
2022-08-12T13:07:48.860Z,1.7
2022-08-12T13:08:51.086Z,1.7
2022-08-12T13:10:01.915Z,1.7
2022-08-12T13:11:07.982Z,1.9
2022-08-12T13:12:16.331Z,1.9
2022-08-12T13:14:08.381Z,1.9
2022-08-12T13:14:33.226Z,1.9
2022-08-12T13:15:42.990Z,1.9
2022-08-12T13:16:49.897Z,1.9
2022-08-12T13:18:02.689Z,1.3
2022-08-12T13:19:07.662Z,1.3
2022-08-12T13:20:33.606Z,1.3
2022-08-12T13:21:33.009Z,3.3
2022-08-12T13:22:32.063Z,3.3
2022-08-12T13:23:40.411Z,3.3
2022-08-12T13:24:52.018Z,3.9
2022-08-12T13:25:57.295Z,3.9
2022-08-12T13:27:05.642Z,3.9
2022-08-12T13:28:14.230Z,1.1
2022-08-12T13:29:22.562Z,1.1
2022-08-12T13:30:30.905Z,1.1
2022-08-12T13:31:46.716Z,0.9
2022-08-12T13:32:48.052Z,0.9
2022-08-12T13:34:29.530Z,0.9
2022-08-12T13:35:19.599Z,2
2022-08-12T13:36:15.481Z,2
2022-08-12T13:37:21.422Z,2
2022-08-12T13:38:34.654Z,1.9
2022-08-12T13:39:38.410Z,1.9
2022-08-12T13:40:46.664Z,1.9
2022-08-12T13:41:55.243Z,3.8
2022-08-12T13:43:05.475Z,3.8
2022-08-12T13:44:11.955Z,3.8
2022-08-12T13:45:20.508Z,1.5
2022-08-12T13:46:28.850Z,1.5
2022-08-12T13:47:38.558Z,1.5
2022-08-12T13:48:45.893Z,2
2022-08-12T13:49:56.325Z,2
2022-08-12T13:51:04.374Z,2
2022-08-12T13:52:11.028Z,2.1
2022-08-12T13:53:23.553Z,2.1
2022-08-12T13:54:27.727Z,2.1
2022-08-12T13:55:36.301Z,2.7
2022-08-12T13:56:49.834Z,2.7
2022-08-12T13:57:53.038Z,2.7
2022-08-12T13:59:01.581Z,1.4
2022-08-12T14:00:09.943Z,1.4
2022-08-12T14:01:18.289Z,1.4
2022-08-12T14:02:26.921Z,1
2022-08-12T14:03:50.793Z,1
2022-08-12T14:04:43.541Z,1
2022-08-12T14:05:55.738Z,3
2022-08-12T14:07:00.504Z,3
2022-08-12T14:08:08.818Z,3
2022-08-12T14:09:19.846Z,2.2
2022-08-12T14:10:25.721Z,2.2
2022-08-12T14:11:34.062Z,2.2
2022-08-12T14:12:54.277Z,1.2
2022-08-12T14:14:02.809Z,1.2
2022-08-12T14:14:59.313Z,1.2
2022-08-12T14:16:07.894Z,1.4
2022-08-12T14:17:19.681Z,1.4
2022-08-12T14:18:24.579Z,1.4
2022-08-12T14:19:37.077Z,2
2022-08-12T14:20:41.497Z,2
2022-08-12T14:21:58.946Z,2
2022-08-12T14:22:58.440Z,1.1
2022-08-12T14:24:08.338Z,1.1
2022-08-12T14:25:16.592Z,1.1
2022-08-12T14:26:23.707Z,1.8
2022-08-12T14:28:02.984Z,1.8
2022-08-12T14:28:45.097Z,1.8
2022-08-12T15:03:03.188Z,0
2022-08-12T15:04:11.525Z,0
2022-08-12T15:06:00.745Z,0
2022-08-12T15:06:38.872Z,1.6
2022-08-12T15:07:48.986Z,1.6
2022-08-12T15:08:45.121Z,1.6
2022-08-12T15:09:53.669Z,2.5
2022-08-12T15:11:02.151Z,2.5
2022-08-12T15:12:13.606Z,2.5
2022-08-12T15:13:19.044Z,1.6
2022-08-12T15:14:27.404Z,1.6
2022-08-12T15:15:35.712Z,1.6
2022-08-12T15:16:44.287Z,4.6
2022-08-12T15:17:59.218Z,4.6
2022-08-12T15:19:00.964Z,4.6
2022-08-12T15:20:14.351Z,1.9
2022-08-12T15:21:17.893Z,1.9
2022-08-12T15:22:36.413Z,1.9
2022-08-12T15:23:45.570Z,3.2
2022-08-12T15:24:43.173Z,3.2
2022-08-12T15:25:59.964Z,3.2
2022-08-12T15:27:00.080Z,2.3
2022-08-12T15:28:10.756Z,2.3
2022-08-12T15:29:16.794Z,2.3
2022-08-12T15:30:25.343Z,2.6
2022-08-12T15:31:54.258Z,2.6
2022-08-12T15:32:42.044Z,2.6
2022-08-12T15:33:50.608Z,2.4
2022-08-12T15:34:58.947Z,2.4
2022-08-12T15:36:07.700Z,2.4
2022-08-12T15:37:17.267Z,2.1
2022-08-12T15:38:25.880Z,2.1
2022-08-12T15:39:32.976Z,2.1
2022-08-12T15:40:46.630Z,2.7
2022-08-12T15:41:50.833Z,2.7
2022-08-12T15:42:58.232Z,2.7
2022-08-12T15:44:16.703Z,11
2022-08-12T15:45:21.196Z,11
2022-08-12T15:46:25.703Z,11
2022-08-12T15:47:33.573Z,3
2022-08-12T15:48:40.402Z,3
2022-08-12T15:49:55.210Z,3
2022-08-12T15:50:57.297Z,2.2
2022-08-12T15:52:05.643Z,2.2
2022-08-12T15:53:14.975Z,2.2
2022-08-12T15:54:32.787Z,2.4
2022-08-12T15:55:33.463Z,2.4
2022-08-12T15:56:39.304Z,2.4
2022-08-12T15:57:50.534Z,1.4
2022-08-12T15:58:56.176Z,1.4
2022-08-12T16:00:07.710Z,1.4
2022-08-12T16:01:13.093Z,4.2
2022-08-12T16:02:21.443Z,4.2
2022-08-12T16:03:45.544Z,4.2
2022-08-12T16:04:38.334Z,3.1
2022-08-12T16:06:13.460Z,3.1
2022-08-12T16:07:10.282Z,3.1
2022-08-12T16:08:03.590Z,3.7
2022-08-12T16:09:11.932Z,3.7
2022-08-12T16:10:20.291Z,3.7
2022-08-12T16:11:28.831Z,3.6
2022-08-12T16:12:37.178Z,3.6
2022-08-12T16:13:45.533Z,3.6
2022-08-12T16:14:54.085Z,3.4
2022-08-12T16:16:03.236Z,3.4
2022-08-12T16:17:14.758Z,3.4
2022-08-12T16:18:20.610Z,2.3
2022-08-12T16:20:02.032Z,2.3
2022-08-12T16:20:36.044Z,2.3
2022-08-12T16:21:50.905Z,2
2022-08-12T16:22:53.061Z,2
2022-08-12T16:24:01.625Z,2